Time;durP1;ratioP1;P1;durP2;ratioP2;P2;SDS_P1;SDS_P2;PMS_P1;PMS_P2;Temp;Humidity;BMP_temperature;BMP_pressure;BME280_temperature;BME280_humidity;BME280_pressure;Samples;Min_cycle;Max_cycle;Signal;HPM_P1;HPM_P2
2022/12/28 00:00:17;;;;;;;9.70;4.80;;;7.30;99.90;;;;;;4975413;28;20239;-86
2022/12/28 00:02:45;;;;;;;12.40;5.80;;;7.30;99.90;;;;;;4975669;28;20193;-85
2022/12/28 00:05:12;;;;;;;8.17;5.07;;;7.30;99.90;;;;;;4975478;28;20641;-86
2022/12/28 00:07:39;;;;;;;12.53;5.40;;;7.30;99.90;;;;;;4975566;28;20201;-85
2022/12/28 00:10:07;;;;;;;9.73;5.40;;;7.30;99.90;;;;;;4975233;28;20688;-86
2022/12/28 00:12:34;;;;;;;9.57;5.03;;;7.30;99.90;;;;;;4975118;28;20790;-85
2022/12/28 00:15:01;;;;;;;11.03;5.30;;;7.30;99.90;;;;;;4975716;28;20241;-85
2022/12/28 00:17:28;;;;;;;12.30;5.93;;;7.30;99.90;;;;;;4975016;28;20205;-86
2022/12/28 00:19:58;;;;;;;10.10;5.17;;;7.30;99.90;;;;;;4975304;28;20680;-85
2022/12/28 00:22:25;;;;;;;8.90;5.07;;;7.30;99.90;;;;;;4974793;28;20220;-85
2022/12/28 00:24:52;;;;;;;11.20;5.33;;;7.30;99.90;;;;;;4994149;28;20235;-85
2022/12/28 00:27:18;;;;;;;7.07;5.97;;;7.30;99.90;;;;;;4997122;28;20266;-84
2022/12/28 00:29:45;;;;;;;12.77;5.67;;;7.40;99.90;;;;;;4996818;28;20774;-83
2022/12/28 00:32:12;;;;;;;9.87;5.20;;;7.40;99.90;;;;;;4997252;28;20206;-84
2022/12/28 00:34:39;;;;;;;10.23;4.43;;;7.40;99.90;;;;;;4997223;28;20312;-85
2022/12/28 00:37:07;;;;;;;9.07;4.60;;;7.40;99.90;;;;;;4997294;28;20208;-84
2022/12/28 00:39:34;;;;;;;8.43;4.80;;;7.40;99.90;;;;;;4995959;28;20193;-84
2022/12/28 00:42:02;;;;;;;11.10;4.67;;;7.50;99.90;;;;;;4991360;28;20537;-84
2022/12/28 00:44:28;;;;;;;8.67;4.33;;;7.50;99.90;;;;;;4978132;28;20189;-83
2022/12/28 00:46:56;;;;;;;9.43;4.20;;;7.50;99.90;;;;;;4977202;28;20208;-84
2022/12/28 00:49:22;;;;;;;7.20;4.33;;;7.60;99.90;;;;;;4978125;28;20312;-83
2022/12/28 00:51:49;;;;;;;11.07;4.47;;;7.60;99.90;;;;;;4994314;28;20572;-84
2022/12/28 00:54:18;;;;;;;6.77;4.03;;;7.60;99.90;;;;;;4997253;28;20302;-83
2022/12/28 00:56:45;;;;;;;10.10;4.37;;;7.60;99.90;;;;;;4997444;28;20545;-83
2022/12/28 00:59:12;;;;;;;5.10;3.80;;;7.70;99.90;;;;;;4996056;28;20215;-83
2022/12/28 01:01:39;;;;;;;12.97;3.83;;;7.70;99.90;;;;;;4997076;28;20295;-85
2022/12/28 01:04:06;;;;;;;10.07;4.03;;;7.70;99.90;;;;;;4996988;28;20761;-85
2022/12/28 01:06:33;;;;;;;8.17;3.57;;;7.70;99.90;;;;;;4978363;28;20323;-83
2022/12/28 01:09:00;;;;;;;5.40;3.77;;;7.80;99.90;;;;;;4977524;28;20261;-84
2022/12/28 01:11:30;;;;;;;7.57;3.90;;;7.80;99.90;;;;;;4977758;28;20193;-85
2022/12/28 01:13:59;;;;;;;8.77;4.50;;;7.80;99.90;;;;;;4977044;28;20312;-85
2022/12/28 01:16:28;;;;;;;8.93;3.93;;;7.90;99.90;;;;;;4977347;28;20220;-84
2022/12/28 01:18:56;;;;;;;8.33;4.03;;;7.90;99.90;;;;;;4977630;28;20721;-84
2022/12/28 01:21:25;;;;;;;4.83;3.57;;;8.00;99.90;;;;;;4976827;28;20200;-85
2022/12/28 01:23:55;;;;;;;8.60;3.77;;;8.00;99.90;;;;;;4977060;28;20231;-84
2022/12/28 01:26:22;;;;;;;7.77;4.10;;;8.00;99.90;;;;;;4976979;28;20525;-84
2022/12/28 01:28:51;;;;;;;7.57;3.90;;;8.00;99.90;;;;;;4991840;28;20732;-84
2022/12/28 01:31:19;;;;;;;9.27;3.60;;;8.10;99.90;;;;;;4996655;28;20284;-83
2022/12/28 01:33:46;;;;;;;9.23;3.83;;;8.20;99.90;;;;;;4996608;28;20594;-83
2022/12/28 01:36:15;;;;;;;6.80;3.93;;;8.20;99.90;;;;;;4994836;28;20286;-84
2022/12/28 01:38:43;;;;;;;8.97;4.53;;;8.20;99.90;;;;;;4995910;28;20316;-82
2022/12/28 01:41:12;;;;;;;6.97;3.93;;;8.30;99.90;;;;;;4984369;28;20274;-83
2022/12/28 01:43:41;;;;;;;10.23;4.80;;;8.30;99.90;;;;;;4976456;28;20197;-80
2022/12/28 01:46:13;;;;;;;8.30;4.20;;;8.30;99.90;;;;;;4990096;28;20298;-83
2022/12/28 01:48:45;;;;;;;11.00;4.40;;;8.40;99.90;;;;;;4996151;28;20280;-85
2022/12/28 01:51:12;;;;;;;8.07;4.13;;;8.40;99.90;;;;;;4996118;28;20196;-83
2022/12/28 01:53:39;;;;;;;9.53;4.57;;;8.50;99.90;;;;;;4995732;28;20230;-84
2022/12/28 01:56:07;;;;;;;7.87;4.50;;;8.50;99.90;;;;;;4995534;28;20204;-84
2022/12/28 01:58:35;;;;;;;7.30;4.43;;;8.50;99.90;;;;;;4994780;28;20628;-81
2022/12/28 02:01:02;;;;;;;8.43;4.37;;;8.50;99.90;;;;;;4987028;28;20239;-83
2022/12/28 02:03:32;;;;;;;6.27;4.63;;;8.50;99.90;;;;;;4974976;28;20503;-82
2022/12/28 02:06:03;;;;;;;6.23;4.47;;;8.50;99.90;;;;;;4975459;28;20597;-83
2022/12/28 02:08:40;;;;;;;8.77;5.67;;;8.50;99.90;;;;;;4974761;28;20263;-84
2022/12/28 02:11:08;;;;;;;9.70;4.83;;;8.50;99.90;;;;;;4974074;28;20200;-82
2022/12/28 02:13:36;;;;;;;9.43;5.27;;;8.50;99.90;;;;;;4974423;28;20295;-84
2022/12/28 02:16:04;;;;;;;5.67;4.57;;;8.50;99.90;;;;;;4975874;28;20462;-83
2022/12/28 02:18:33;;;;;;;9.83;4.83;;;8.50;99.90;;;;;;4993478;28;20239;-85
2022/12/28 02:21:23;;;;;;;11.40;5.43;;;8.50;99.90;;;;;;4995348;28;20208;-86
2022/12/28 02:24:23;;;;;;;12.23;5.10;;;8.60;99.90;;;;;;4995903;28;20552;-84
2022/12/28 02:26:56;;;;;;;14.27;6.07;;;8.50;99.90;;;;;;4995445;28;20224;-84
2022/12/28 02:29:37;;;;;;;8.57;5.17;;;8.60;99.90;;;;;;4995906;28;20247;-84
2022/12/28 02:32:17;;;;;;;14.13;5.90;;;8.60;99.90;;;;;;4994601;28;20509;-85
2022/12/28 02:34:53;;;;;;;16.77;6.27;;;8.60;99.90;;;;;;4995485;28;20250;-84
2022/12/28 02:37:24;;;;;;;12.13;5.53;;;8.60;99.90;;;;;;4987521;28;20247;-82
2022/12/28 02:39:57;;;;;;;15.87;5.57;;;8.70;99.90;;;;;;4976147;28;20280;-85
2022/12/28 02:42:25;;;;;;;15.20;5.30;;;8.70;99.90;;;;;;4978222;28;20283;-84
2022/12/28 02:50:34;;;;;;;18.03;5.93;;;8.80;99.90;;;;;;4994025;28;20195;-84
2022/12/28 02:53:34;;;;;;;15.33;5.80;;;8.80;99.90;;;;;;4994464;28;20283;-85
2022/12/28 02:56:12;;;;;;;19.97;6.00;;;8.80;99.90;;;;;;4983189;28;20199;-83
2022/12/28 02:59:03;;;;;;;16.17;6.30;;;8.80;99.90;;;;;;4973363;28;20192;-82
2022/12/28 03:02:02;;;;;;;18.53;6.80;;;8.80;99.90;;;;;;4974799;28;20216;-81
2022/12/28 03:04:45;;;;;;;15.77;6.03;;;8.80;99.90;;;;;;4975066;28;20295;-84
2022/12/28 03:10:10;;;;;;;17.03;6.03;;;8.70;99.90;;;;;;4975932;28;20586;-85
2022/12/28 03:12:43;;;;;;;13.87;6.07;;;8.80;99.90;;;;;;4982529;28;20675;-84
2022/12/28 03:15:28;;;;;;;11.50;5.87;;;8.80;99.90;;;;;;4994480;28;20223;-82
2022/12/28 03:31:52;;;;;;;12.53;6.00;;;8.80;99.90;;;;;;4974739;28;20247;-81
2022/12/28 03:34:21;;;;;;;25.57;7.93;;;8.70;99.90;;;;;;4974540;28;20323;-85
2022/12/28 03:36:55;;;;;;;20.83;7.03;;;8.80;99.90;;;;;;4973146;28;20244;-84
2022/12/28 03:39:31;;;;;;;14.37;6.40;;;8.80;99.90;;;;;;4973229;28;20291;-85
2022/12/28 03:44:53;;;;;;;21.03;7.70;;;8.80;99.90;;;;;;4979995;28;20214;-86
2022/12/28 03:47:23;;;;;;;20.70;7.40;;;8.80;99.90;;;;;;4994325;28;20684;-85
2022/12/28 03:49:52;;;;;;;19.63;6.77;;;8.80;99.90;;;;;;4985361;28;20200;-83
2022/12/28 03:52:19;;;;;;;15.00;6.13;;;8.80;99.90;;;;;;4974765;28;20201;-83
2022/12/28 03:54:47;;;;;;;21.50;7.17;;;8.80;99.90;;;;;;4974695;28;20235;-83
2022/12/28 03:57:15;;;;;;;21.00;6.50;;;8.80;99.90;;;;;;4981486;28;20282;-84
2022/12/28 03:59:42;;;;;;;17.33;6.77;;;8.80;99.90;;;;;;4994074;28;20211;-82
2022/12/28 04:02:09;;;;;;;15.63;6.03;;;8.80;99.90;;;;;;4991710;28;20204;-82
2022/12/28 04:04:36;;;;;;;18.30;7.40;;;8.80;99.90;;;;;;4974033;28;20295;-83
2022/12/28 04:07:05;;;;;;;17.87;6.93;;;8.80;99.90;;;;;;4974733;28;20196;-83
2022/12/28 04:09:32;;;;;;;28.87;7.13;;;8.80;99.90;;;;;;4982329;28;20606;-84
2022/12/28 04:11:59;;;;;;;16.00;6.80;;;8.80;99.90;;;;;;4993605;28;20223;-83
2022/12/28 04:14:26;;;;;;;18.73;6.07;;;8.80;99.90;;;;;;4994102;28;20230;-86
2022/12/28 04:16:53;;;;;;;20.30;6.67;;;8.80;99.90;;;;;;4993520;28;20662;-85
2022/12/28 04:19:20;;;;;;;18.77;6.83;;;8.80;99.90;;;;;;4974557;28;20211;-85
2022/12/28 04:21:47;;;;;;;24.40;7.77;;;8.80;99.90;;;;;;4974550;28;20200;-86
2022/12/28 04:24:15;;;;;;;21.10;7.63;;;8.80;99.90;;;;;;4991983;28;20227;-83
2022/12/28 04:26:42;;;;;;;18.33;6.30;;;8.90;99.90;;;;;;4993112;28;20809;-83
2022/12/28 04:29:09;;;;;;;20.43;6.83;;;8.90;99.90;;;;;;4990662;28;20262;-83
2022/12/28 04:31:36;;;;;;;20.60;6.73;;;8.90;99.90;;;;;;4991981;28;20323;-83
2022/12/28 04:34:05;;;;;;;25.13;7.17;;;8.90;99.90;;;;;;4992960;28;20678;-84
2022/12/28 04:36:32;;;;;;;19.07;6.50;;;8.90;99.90;;;;;;4984676;28;20212;-84
2022/12/28 04:38:59;;;;;;;24.63;7.80;;;8.90;99.90;;;;;;4972707;28;20475;-82
2022/12/28 04:41:27;;;;;;;25.63;7.77;;;8.90;99.90;;;;;;4972018;28;20379;-81
2022/12/28 04:43:55;;;;;;;18.30;6.13;;;9.00;99.90;;;;;;4973356;28;20231;-82
2022/12/28 04:46:22;;;;;;;18.67;6.03;;;9.00;99.90;;;;;;4991020;28;20227;-83
2022/12/28 04:48:50;;;;;;;17.00;6.70;;;9.00;99.90;;;;;;4993858;28;20196;-85
2022/12/28 04:51:19;;;;;;;20.37;6.07;;;9.00;99.90;;;;;;4993437;28;20196;-83
2022/12/28 04:53:46;;;;;;;22.70;6.17;;;9.00;99.90;;;;;;4976327;28;20292;-86
2022/12/28 04:56:15;;;;;;;13.93;6.87;;;9.00;99.90;;;;;;4974288;28;20252;-83
2022/12/28 04:58:43;;;;;;;22.37;6.43;;;9.00;99.90;;;;;;4973304;28;20551;-82
2022/12/28 05:01:12;;;;;;;20.50;7.20;;;9.00;99.90;;;;;;4973732;28;20312;-85
2022/12/28 05:03:42;;;;;;;18.17;6.67;;;9.00;99.90;;;;;;4974212;28;20825;-84
2022/12/28 05:06:13;;;;;;;25.73;9.30;;;9.10;99.90;;;;;;4973421;28;20505;-82
2022/12/28 05:08:40;;;;;;;19.10;6.60;;;9.00;99.90;;;;;;4974155;28;20260;-83
2022/12/28 05:11:10;;;;;;;20.17;7.70;;;9.00;99.90;;;;;;4973853;28;20253;-85
2022/12/28 05:13:37;;;;;;;18.23;6.97;;;9.00;99.90;;;;;;4987893;28;20210;-85
2022/12/28 05:16:08;;;;;;;17.93;6.80;;;9.10;99.90;;;;;;4996890;28;20252;-84
2022/12/28 05:18:35;;;;;;;22.57;6.67;;;9.10;99.90;;;;;;4977723;28;20611;-85
2022/12/28 05:21:06;;;;;;;22.13;6.97;;;9.10;99.90;;;;;;4977754;28;20292;-84
2022/12/28 05:23:35;;;;;;;22.97;6.30;;;9.10;99.90;;;;;;4985353;28;20291;-83
2022/12/28 05:26:02;;;;;;;22.67;6.43;;;9.10;99.90;;;;;;4997020;28;20203;-83
2022/12/28 05:28:29;;;;;;;19.47;7.03;;;9.00;99.90;;;;;;4996378;28;20199;-83
2022/12/28 05:30:59;;;;;;;21.40;8.27;;;9.10;99.90;;;;;;4996260;28;20212;-83
2022/12/28 05:33:28;;;;;;;22.37;7.27;;;9.10;99.90;;;;;;4980807;28;20251;-85
2022/12/28 05:35:55;;;;;;;24.67;5.80;;;9.10;99.90;;;;;;4977055;28;20283;-83
2022/12/28 05:38:22;;;;;;;25.63;7.87;;;9.10;99.90;;;;;;4977268;28;20674;-84
2022/12/28 05:40:49;;;;;;;20.53;7.23;;;9.10;99.90;;;;;;4976414;28;20303;-82
2022/12/28 05:43:16;;;;;;;21.13;7.07;;;9.10;99.90;;;;;;4976562;28;20233;-85
2022/12/28 05:45:43;;;;;;;20.73;6.20;;;9.10;99.90;;;;;;4977068;28;20196;-83
2022/12/28 05:48:10;;;;;;;16.07;6.10;;;9.10;99.90;;;;;;4976587;28;20615;-86
2022/12/28 05:50:38;;;;;;;22.80;6.60;;;9.20;99.90;;;;;;4987295;28;20199;-85
2022/12/28 05:53:05;;;;;;;16.07;5.77;;;9.20;99.90;;;;;;4996014;28;20601;-85
2022/12/28 05:55:32;;;;;;;18.50;7.23;;;9.20;99.90;;;;;;4995505;28;20430;-85
2022/12/28 05:57:59;;;;;;;26.23;8.33;;;9.20;99.90;;;;;;4995365;28;20242;-83
2022/12/28 06:00:26;;;;;;;21.70;7.97;;;9.20;99.90;;;;;;4980962;28;20225;-86
2022/12/28 06:02:55;;;;;;;33.37;8.27;;;9.20;99.90;;;;;;4976427;28;20279;-86
2022/12/28 06:05:22;;;;;;;16.93;7.43;;;9.30;99.90;;;;;;4977011;28;20201;-87
2022/12/28 06:07:52;;;;;;;21.60;7.33;;;9.20;99.90;;;;;;4977582;28;20227;-84
2022/12/28 06:10:19;;;;;;;23.67;6.87;;;9.20;99.90;;;;;;4976300;28;20208;-87
2022/12/28 06:12:45;;;;;;;18.90;6.17;;;9.20;99.90;;;;;;4977081;28;20201;-86
2022/12/28 06:15:12;;;;;;;19.20;6.63;;;9.30;99.90;;;;;;4977312;28;20287;-84
2022/12/28 06:17:39;;;;;;;22.93;7.27;;;9.30;99.90;;;;;;4975984;28;20631;-85
2022/12/28 06:20:07;;;;;;;22.60;6.93;;;9.30;99.90;;;;;;4976000;28;20205;-82
2022/12/28 06:22:35;;;;;;;21.70;6.77;;;9.30;99.90;;;;;;4976197;28;20208;-87
2022/12/28 06:25:03;;;;;;;24.97;7.27;;;9.30;99.90;;;;;;4976509;28;20204;-84
2022/12/28 06:27:30;;;;;;;20.57;6.93;;;9.30;99.90;;;;;;4976300;28;20296;-88
2022/12/28 06:29:57;;;;;;;17.87;5.60;;;9.30;99.90;;;;;;4975856;28;20608;-85
2022/12/28 06:32:24;;;;;;;18.23;7.30;;;9.30;99.90;;;;;;4983515;28;20243;-84
2022/12/28 06:34:50;;;;;;;16.80;6.87;;;9.30;99.90;;;;;;4995549;28;20314;-85
2022/12/28 06:37:17;;;;;;;13.60;5.93;;;9.30;99.90;;;;;;4995711;28;20204;-84
2022/12/28 06:39:44;;;;;;;21.67;6.53;;;9.30;99.90;;;;;;4980531;28;20215;-87
2022/12/28 06:42:13;;;;;;;14.27;5.17;;;9.30;99.90;;;;;;4980519;28;20330;-87
2022/12/28 06:44:39;;;;;;;15.00;6.17;;;9.40;99.90;;;;;;4996408;28;20243;-87
2022/12/28 06:47:06;;;;;;;15.50;6.53;;;9.30;99.90;;;;;;4995705;28;20207;-85
2022/12/28 06:49:33;;;;;;;18.23;6.50;;;9.30;99.90;;;;;;4996364;28;20287;-86
2022/12/28 06:52:00;;;;;;;22.60;8.07;;;9.30;99.90;;;;;;4995552;28;20200;-87
2022/12/28 06:54:27;;;;;;;24.00;9.00;;;9.30;99.90;;;;;;4995194;28;20202;-84
2022/12/28 06:56:54;;;;;;;20.37;6.77;;;9.40;99.90;;;;;;4994830;28;20663;-86
2022/12/28 06:59:22;;;;;;;18.23;7.23;;;9.40;99.90;;;;;;4977957;28;20292;-86
2022/12/28 07:01:49;;;;;;;20.90;7.33;;;9.40;99.90;;;;;;4975616;28;20388;-87
2022/12/28 07:04:16;;;;;;;18.07;7.20;;;9.40;99.90;;;;;;4974071;28;20208;-84
2022/12/28 07:06:44;;;;;;;20.47;7.90;;;9.40;99.90;;;;;;4973276;28;20232;-85
2022/12/28 07:09:13;;;;;;;15.43;7.60;;;9.50;99.90;;;;;;4974020;28;20213;-83
2022/12/28 07:11:40;;;;;;;16.67;7.60;;;9.40;99.90;;;;;;4974550;28;20209;-87
2022/12/28 07:14:07;;;;;;;19.27;7.13;;;9.40;99.90;;;;;;4973946;28;20283;-82
2022/12/28 07:16:35;;;;;;;14.17;6.30;;;9.50;99.90;;;;;;4993571;28;20353;-86
2022/12/28 07:19:02;;;;;;;21.63;6.73;;;9.50;99.90;;;;;;4993560;28;20200;-85
2022/12/28 07:21:31;;;;;;;21.93;7.93;;;9.50;99.90;;;;;;4994473;28;20223;-88
2022/12/28 07:23:58;;;;;;;24.63;8.13;;;9.50;99.90;;;;;;4983736;28;20217;-88
2022/12/28 07:26:27;;;;;;;18.03;6.93;;;9.50;99.90;;;;;;4973249;28;20232;-87
2022/12/28 07:28:55;;;;;;;23.30;9.20;;;9.40;99.90;;;;;;4989415;28;20292;-84
2022/12/28 07:31:23;;;;;;;18.27;7.27;;;9.40;99.90;;;;;;4993959;28;20235;-86
2022/12/28 07:33:54;;;;;;;19.23;7.47;;;9.40;99.90;;;;;;4997923;28;20251;-88
2022/12/28 07:36:22;;;;;;;19.00;7.80;;;9.40;99.90;;;;;;4994092;28;20223;-88
2022/12/28 07:38:49;;;;;;;19.30;7.53;;;9.40;99.90;;;;;;4976259;28;20601;-90
2022/12/28 07:41:18;;;;;;;18.33;7.83;;;9.40;99.90;;;;;;4974425;28;20271;-90
2022/12/28 07:43:45;;;;;;;23.60;8.60;;;9.50;99.90;;;;;;4984564;28;20223;-89
2022/12/28 07:46:14;;;;;;;17.30;7.37;;;9.50;99.90;;;;;;4994601;28;20494;-90
2022/12/28 07:48:41;;;;;;;16.10;6.73;;;9.50;99.90;;;;;;4993778;28;20214;-89
2022/12/28 07:51:13;;;;;;;23.73;8.00;;;9.50;99.90;;;;;;4983079;28;20601;-83
2022/12/28 07:53:40;;;;;;;17.00;6.90;;;9.50;99.90;;;;;;4973556;28;20200;-86
2022/12/28 07:56:08;;;;;;;24.33;7.03;;;9.50;99.90;;;;;;4973501;28;20259;-86
2022/12/28 07:58:35;;;;;;;21.70;7.57;;;9.50;99.90;;;;;;4975449;28;20197;-87
2022/12/28 08:01:09;;;;;;;24.57;8.27;;;9.50;99.90;;;;;;4975146;28;20228;-86
2022/12/28 08:03:37;;;;;;;18.00;8.00;;;9.50;99.90;;;;;;4993378;28;20367;-90
2022/12/28 08:06:09;;;;;;;22.07;8.77;;;9.50;99.90;;;;;;4993986;28;20242;-87
2022/12/28 08:08:38;;;;;;;30.93;8.53;;;9.50;99.90;;;;;;4993857;28;20203;-87
2022/12/28 08:11:07;;;;;;;22.00;7.33;;;9.50;99.90;;;;;;4994393;28;20196;-88
2022/12/28 08:13:36;;;;;;;18.57;7.03;;;9.50;99.90;;;;;;4993684;28;20779;-90
2022/12/28 08:16:03;;;;;;;23.70;7.57;;;9.60;99.90;;;;;;4993661;28;20228;-90
2022/12/28 08:18:30;;;;;;;24.97;9.23;;;9.60;99.90;;;;;;4993659;28;20238;-88
2022/12/28 08:21:01;;;;;;;20.47;8.00;;;9.50;99.90;;;;;;4994237;28;20207;-86
2022/12/28 08:23:28;;;;;;;33.03;8.27;;;9.60;99.90;;;;;;4995151;28;20212;-88
2022/12/28 08:25:57;;;;;;;23.97;8.10;;;9.60;99.90;;;;;;4986533;28;20717;-86
2022/12/28 08:28:24;;;;;;;26.23;8.67;;;9.60;99.90;;;;;;4995115;28;21019;-85
2022/12/28 08:30:52;;;;;;;20.10;8.13;;;9.50;99.90;;;;;;5013828;28;20202;-84
2022/12/28 08:33:18;;;;;;;20.40;7.53;;;9.60;99.90;;;;;;5004193;28;20234;-85
2022/12/28 08:35:47;;;;;;;31.27;8.97;;;9.60;99.90;;;;;;4997259;28;20221;-84
2022/12/28 08:38:21;;;;;;;27.03;8.33;;;9.60;99.90;;;;;;4997741;28;20734;-87
2022/12/28 08:40:54;;;;;;;31.77;9.43;;;9.60;99.90;;;;;;4992824;28;20290;-83
2022/12/28 08:43:23;;;;;;;27.63;7.97;;;9.60;99.90;;;;;;4998966;28;20211;-86
2022/12/28 08:45:58;;;;;;;28.73;8.43;;;9.60;99.90;;;;;;4995110;28;20208;-87
2022/12/28 08:48:25;;;;;;;23.80;8.60;;;9.70;99.90;;;;;;5005269;28;20518;-84
2022/12/28 08:50:52;;;;;;;30.97;9.40;;;9.60;99.90;;;;;;5008022;28;20235;-89
2022/12/28 08:53:38;;;;;;;20.77;7.97;;;9.60;99.90;;;;;;4999534;28;20238;-85
2022/12/28 08:56:06;;;;;;;24.23;7.67;;;9.60;99.90;;;;;;4998516;28;20207;-89
2022/12/28 08:58:35;;;;;;;26.83;8.33;;;9.70;99.90;;;;;;4996950;28;20605;-84
2022/12/28 09:01:06;;;;;;;24.07;7.43;;;9.70;99.90;;;;;;4987018;28;20315;-88
2022/12/28 09:03:35;;;;;;;21.97;8.43;;;9.80;99.90;;;;;;4978679;28;20246;-87
2022/12/28 09:06:03;;;;;;;23.53;8.23;;;9.70;99.90;;;;;;4978401;28;20279;-86
2022/12/28 09:08:30;;;;;;;21.13;7.50;;;9.80;99.90;;;;;;4994041;28;20563;-86
2022/12/28 09:10:59;;;;;;;20.03;7.53;;;9.70;99.90;;;;;;4997910;28;20239;-85
2022/12/28 09:13:27;;;;;;;20.73;6.63;;;9.70;99.90;;;;;;4998245;28;20218;-86
2022/12/28 09:15:59;;;;;;;14.50;6.33;;;9.80;99.90;;;;;;4998607;28;20307;-86
2022/12/28 09:18:27;;;;;;;24.17;7.40;;;9.80;99.90;;;;;;4998207;28;20527;-86
2022/12/28 09:20:56;;;;;;;20.23;6.63;;;9.80;99.90;;;;;;4981921;28;20212;-90
2022/12/28 09:23:23;;;;;;;15.33;5.77;;;9.70;99.90;;;;;;4978624;28;20239;-86
2022/12/28 09:25:50;;;;;;;20.53;6.70;;;9.80;99.90;;;;;;4978341;28;20205;-90
2022/12/28 09:28:17;;;;;;;21.27;5.70;;;9.80;99.90;;;;;;4984050;28;20204;-87
2022/12/28 09:30:44;;;;;;;18.50;5.90;;;9.80;99.90;;;;;;4997912;28;20193;-83
2022/12/28 09:35:58;;;;;;;15.83;6.23;;;9.80;99.90;;;;;;4977086;28;20294;-84
2022/12/28 09:38:26;;;;;;;14.57;5.83;;;9.80;99.90;;;;;;4995311;28;20527;-88
2022/12/28 09:40:53;;;;;;;19.70;5.43;;;9.80;99.90;;;;;;4993719;28;20239;-86
2022/12/28 09:43:20;;;;;;;18.37;4.43;;;9.90;99.90;;;;;;4987656;28;20282;-85
2022/12/28 09:45:48;;;;;;;20.80;4.93;;;9.90;99.90;;;;;;4996162;28;20600;-85
2022/12/28 09:48:22;;;;;;;13.20;4.60;;;9.90;99.90;;;;;;4995301;28;20608;-86
2022/12/28 09:50:50;;;;;;;13.63;4.50;;;9.90;99.90;;;;;;4991264;28;20299;-86
2022/12/28 09:53:29;;;;;;;15.23;4.97;;;9.90;99.90;;;;;;4976385;28;20300;-88
2022/12/28 09:56:06;;;;;;;13.97;4.03;;;10.00;99.90;;;;;;4976785;28;20239;-85
2022/12/28 09:58:36;;;;;;;18.53;5.47;;;10.00;99.90;;;;;;4976164;28;20287;-86
2022/12/28 10:01:09;;;;;;;12.70;4.60;;;10.00;99.90;;;;;;4976914;28;20232;-86
2022/12/28 10:03:39;;;;;;;14.40;4.43;;;10.00;99.90;;;;;;4995510;28;20567;-85
2022/12/28 10:06:12;;;;;;;11.43;4.07;;;10.00;99.90;;;;;;4995838;28;20206;-86
2022/12/28 10:08:42;;;;;;;17.33;4.07;;;10.00;99.90;;;;;;4993902;28;20211;-87
2022/12/28 10:11:11;;;;;;;9.63;3.93;;;10.00;99.90;;;;;;4978288;28;20508;-89
2022/12/28 10:13:39;;;;;;;10.07;3.67;;;10.10;99.90;;;;;;4996139;28;20650;-88
2022/12/28 10:16:12;;;;;;;20.53;5.17;;;10.10;99.90;;;;;;4996505;28;20255;-85
2022/12/28 10:18:41;;;;;;;11.77;3.53;;;10.10;99.90;;;;;;4996252;28;20228;-85
2022/12/28 10:21:08;;;;;;;8.83;3.67;;;10.10;99.90;;;;;;4996905;28;20283;-88
2022/12/28 10:23:36;;;;;;;10.53;3.90;;;10.10;99.90;;;;;;5011518;28;20287;-88
2022/12/28 10:26:05;;;;;;;12.60;4.50;;;10.20;99.90;;;;;;4993265;28;20287;-90
2022/12/28 10:28:44;;;;;;;13.27;3.93;;;10.20;99.90;;;;;;4976120;28;20230;-84
2022/12/28 10:31:13;;;;;;;14.37;3.83;;;10.20;99.90;;;;;;4975083;28;20279;-83
2022/12/28 10:33:49;;;;;;;11.67;3.93;;;10.20;99.90;;;;;;4975844;28;20244;-85
2022/12/28 10:36:17;;;;;;;10.27;3.30;;;10.20;99.90;;;;;;4975976;28;20216;-84
2022/12/28 10:38:50;;;;;;;15.70;3.77;;;10.20;99.90;;;;;;4987508;28;20711;-86
2022/12/28 10:41:19;;;;;;;13.50;3.53;;;10.20;99.90;;;;;;4995493;28;20240;-84
2022/12/28 10:43:50;;;;;;;11.57;3.10;;;10.20;99.90;;;;;;4996235;28;20563;-84
2022/12/28 10:46:19;;;;;;;11.77;3.00;;;10.20;99.90;;;;;;4996108;28;20279;-85
2022/12/28 10:48:53;;;;;;;10.50;3.10;;;10.20;99.90;;;;;;4996016;28;20208;-84
2022/12/28 10:51:22;;;;;;;8.67;2.97;;;10.20;99.90;;;;;;4995535;28;20248;-87
2022/12/28 10:53:51;;;;;;;10.63;3.57;;;10.20;99.90;;;;;;4995821;28;20210;-87
2022/12/28 10:56:24;;;;;;;10.07;3.23;;;10.20;99.90;;;;;;4995807;28;20299;-85
2022/12/28 10:58:53;;;;;;;11.27;3.37;;;10.20;99.90;;;;;;4981298;28;20209;-85
2022/12/28 11:01:26;;;;;;;9.27;3.10;;;10.20;99.90;;;;;;4976281;28;20255;-91
2022/12/28 11:04:05;;;;;;;11.97;2.87;;;10.20;99.90;;;;;;4976164;28;20204;-82
2022/12/28 11:06:33;;;;;;;7.10;2.93;;;10.20;99.90;;;;;;4977013;28;20188;-86
2022/12/28 11:09:13;;;;;;;14.80;3.47;;;10.20;99.90;;;;;;4988189;28;20279;-89
2022/12/28 11:11:40;;;;;;;8.57;2.90;;;10.20;99.90;;;;;;4976797;28;20200;-83
2022/12/28 11:14:15;;;;;;;9.13;3.40;;;10.20;99.90;;;;;;4976158;28;20259;-87
2022/12/28 11:16:43;;;;;;;9.43;2.93;;;10.20;99.90;;;;;;4976400;28;20310;-88
2022/12/28 11:19:12;;;;;;;9.47;3.53;;;10.10;99.90;;;;;;4976191;28;20292;-87
2022/12/28 11:21:40;;;;;;;9.83;3.40;;;10.10;99.90;;;;;;4978934;28;20287;-87
2022/12/28 11:24:12;;;;;;;13.97;2.90;;;10.10;99.90;;;;;;4975803;28;20209;-87
2022/12/28 11:26:42;;;;;;;8.57;2.80;;;10.10;99.90;;;;;;4974467;28;20207;-88
2022/12/28 11:29:12;;;;;;;7.90;2.57;;;10.10;99.90;;;;;;4975165;28;20251;-87
2022/12/28 11:31:45;;;;;;;9.80;4.23;;;10.10;99.90;;;;;;4975602;28;20246;-86
2022/12/28 11:34:19;;;;;;;9.17;2.70;;;10.00;99.90;;;;;;4975799;28;20224;-86
2022/12/28 11:36:46;;;;;;;8.80;2.97;;;10.10;99.90;;;;;;4982747;28;20251;-83
2022/12/28 11:39:41;;;;;;;8.17;2.33;;;10.10;99.90;;;;;;4993836;28;20302;-86
2022/12/28 11:42:09;;;;;;;6.50;2.70;;;10.10;99.90;;;;;;4994769;28;20552;-85
2022/12/28 11:44:52;;;;;;;5.37;2.70;;;10.00;99.90;;;;;;4983680;28;20295;-85
2022/12/28 11:47:31;;;;;;;10.37;3.00;;;10.00;99.90;;;;;;4974506;28;20196;-85
2022/12/28 11:50:32;;;;;;;9.57;2.80;;;10.00;99.90;;;;;;4994747;28;20296;-87
2022/12/28 11:53:02;;;;;;;9.07;2.83;;;10.00;99.90;;;;;;4994230;28;20300;-84
2022/12/28 11:55:59;;;;;;;7.63;2.63;;;10.00;99.90;;;;;;4994252;28;20212;-85
2022/12/28 11:59:14;;;;;;;5.20;2.93;;;10.00;99.90;;;;;;4994449;28;20231;-84
2022/12/28 12:01:49;;;;;;;14.73;2.90;;;10.00;99.90;;;;;;4991761;28;20228;-86
2022/12/28 12:04:28;;;;;;;9.60;3.20;;;10.00;99.90;;;;;;4993893;28;20270;-87
2022/12/28 12:07:27;;;;;;;9.13;2.47;;;9.90;99.90;;;;;;4988698;28;20222;-88
2022/12/28 12:10:27;;;;;;;12.63;3.30;;;10.00;99.90;;;;;;4992796;28;20287;-90
2022/12/28 12:12:54;;;;;;;11.27;2.80;;;9.90;99.90;;;;;;4995283;28;20192;-90
2022/12/28 12:15:25;;;;;;;9.60;2.67;;;9.80;99.90;;;;;;4988822;28;20218;-88
2022/12/28 12:17:57;;;;;;;12.77;2.80;;;9.90;99.90;;;;;;4994953;28;20246;-88
2022/12/28 12:20:45;;;;;;;9.10;2.90;;;9.80;99.90;;;;;;4993524;28;20566;-86
2022/12/28 12:23:22;;;;;;;11.30;3.37;;;9.80;99.90;;;;;;4995218;28;20226;-87
2022/12/28 12:25:53;;;;;;;9.97;2.90;;;9.80;99.90;;;;;;4998419;28;20203;-86
2022/12/28 12:28:32;;;;;;;8.23;2.53;;;9.80;99.90;;;;;;4996237;28;21043;-85
2022/12/28 12:31:00;;;;;;;8.57;3.27;;;9.80;99.90;;;;;;4998010;28;20211;-89
2022/12/28 12:33:30;;;;;;;9.23;2.97;;;9.80;99.90;;;;;;4998108;28;20206;-87
2022/12/28 12:36:05;;;;;;;11.53;3.53;;;9.80;99.90;;;;;;4997520;28;20235;-88
2022/12/28 12:38:49;;;;;;;12.80;3.10;;;9.80;99.90;;;;;;4998141;28;20285;-86
2022/12/28 12:41:34;;;;;;;11.23;2.97;;;9.80;99.90;;;;;;4985696;28;20335;-84
2022/12/28 12:44:22;;;;;;;12.20;3.13;;;9.80;99.90;;;;;;4978227;28;20797;-86
2022/12/28 12:47:38;;;;;;;13.07;3.03;;;9.80;99.90;;;;;;4978586;28;20283;-88
2022/12/28 12:50:30;;;;;;;5.43;2.50;;;9.80;99.90;;;;;;4976093;28;20214;-87
2022/12/28 12:53:06;;;;;;;8.47;2.60;;;9.90;99.90;;;;;;4978345;28;20656;-85
2022/12/28 12:55:49;;;;;;;8.33;2.80;;;10.00;99.90;;;;;;4978808;28;20214;-88
2022/12/28 12:58:24;;;;;;;7.90;2.60;;;10.00;99.90;;;;;;4977327;28;20303;-84
2022/12/28 13:01:16;;;;;;;8.77;2.90;;;10.10;99.90;;;;;;4977897;28;20616;-83
2022/12/28 13:03:45;;;;;;;8.33;3.10;;;10.10;99.90;;;;;;4976074;28;20185;-84
2022/12/28 13:06:16;;;;;;;10.83;3.13;;;10.10;99.90;;;;;;4976089;28;20622;-86
2022/12/28 13:08:47;;;;;;;8.20;3.10;;;10.10;99.90;;;;;;4976410;28;20275;-84
2022/12/28 13:11:16;;;;;;;12.40;4.13;;;10.10;99.90;;;;;;4975694;28;20663;-86
2022/12/28 13:13:47;;;;;;;7.90;3.60;;;10.20;99.90;;;;;;4977738;28;20227;-85
2022/12/28 13:16:17;;;;;;;9.17;4.10;;;10.20;99.90;;;;;;4977994;28;20287;-87
2022/12/28 13:18:53;;;;;;;7.90;3.83;;;10.20;99.90;;;;;;5009273;28;20231;-89
2022/12/28 13:21:22;;;;;;;8.10;3.80;;;10.20;99.90;;;;;;5017440;28;20199;-88
2022/12/28 13:23:49;;;;;;;9.53;3.67;;;10.20;99.90;;;;;;4997553;28;20200;-87
2022/12/28 13:26:16;;;;;;;6.47;3.43;;;10.20;99.90;;;;;;4997260;28;20287;-86
2022/12/28 13:28:51;;;;;;;8.17;3.60;;;10.20;99.90;;;;;;4986479;28;20199;-88
2022/12/28 13:31:20;;;;;;;7.77;3.33;;;10.20;99.90;;;;;;4995723;28;20207;-88
2022/12/28 13:33:57;;;;;;;7.73;3.70;;;10.20;99.90;;;;;;4995570;28;20600;-88